createdAt,value
2023-05-09T00:00:06.298Z,15.70
2023-05-09T00:02:34.653Z,15.50
2023-05-09T00:05:02.940Z,15.90
2023-05-09T00:07:31.263Z,15.60
2023-05-09T00:09:58.760Z,15.40
2023-05-09T00:12:29.706Z,15.40
2023-05-09T00:14:58.133Z,15.50
2023-05-09T00:17:25.666Z,15.60
2023-05-09T00:19:55.972Z,15.60
2023-05-09T00:22:23.079Z,15.40
2023-05-09T00:24:50.836Z,15.50
2023-05-09T00:27:18.041Z,15.30
2023-05-09T00:29:45.353Z,14.70
2023-05-09T00:32:12.492Z,15.40
2023-05-09T00:34:39.582Z,15.40
2023-05-09T00:37:07.167Z,15.40
2023-05-09T00:39:34.146Z,15.30
2023-05-09T00:42:01.189Z,15.40
2023-05-09T00:44:28.324Z,15.40
2023-05-09T00:46:55.651Z,15.30
2023-05-09T00:49:23.006Z,15.50
2023-05-09T00:51:51.799Z,16.10
2023-05-09T00:54:19.102Z,15.40
2023-05-09T00:56:46.785Z,15.20
2023-05-09T00:59:14.229Z,15.30
2023-05-09T01:04:10.974Z,15.30
2023-05-09T01:07:03.024Z,15.30
2023-05-09T01:09:40.524Z,15.90
2023-05-09T01:12:16.868Z,14.90
2023-05-09T01:15:15.650Z,15.30
2023-05-09T01:18:21.908Z,15.30
2023-05-09T01:21:08.773Z,15.20
2023-05-09T01:23:44.718Z,15.70
2023-05-09T01:26:47.129Z,15.10
2023-05-09T01:32:15.569Z,15.20
2023-05-09T01:34:45.319Z,15.20
2023-05-09T01:37:16.340Z,15.10
2023-05-09T01:39:49.902Z,15.10
2023-05-09T01:42:20.717Z,15.10
2023-05-09T01:44:49.294Z,15.10
2023-05-09T01:47:18.460Z,15.20
2023-05-09T01:49:47.927Z,15.10
2023-05-09T01:52:19.302Z,13.90
2023-05-09T01:54:47.363Z,15.10
2023-05-09T01:57:15.632Z,15.00
2023-05-09T01:59:45.433Z,15.00
2023-05-09T02:02:13.069Z,15.00
2023-05-09T02:04:42.725Z,14.90
2023-05-09T02:09:38.142Z,15.00
2023-05-09T02:14:33.097Z,14.90
2023-05-09T02:17:06.350Z,14.90
2023-05-09T02:19:35.852Z,14.90
2023-05-09T02:22:05.151Z,14.40
2023-05-09T02:24:36.487Z,14.80
2023-05-09T02:27:05.475Z,14.90
2023-05-09T02:29:40.793Z,14.80
2023-05-09T02:32:16.563Z,14.80
2023-05-09T02:34:45.171Z,15.40
2023-05-09T02:39:39.777Z,14.70
2023-05-09T02:42:10.301Z,14.80
2023-05-09T02:47:07.554Z,14.80
2023-05-09T02:49:35.102Z,14.70
2023-05-09T02:54:31.494Z,14.70
2023-05-09T02:56:59.281Z,14.80
2023-05-09T02:59:26.742Z,14.70
2023-05-09T03:01:54.347Z,14.60
2023-05-09T03:04:22.153Z,14.70
2023-05-09T03:06:49.643Z,14.70
2023-05-09T03:09:16.851Z,14.70
2023-05-09T03:11:44.075Z,14.50
2023-05-09T03:14:14.913Z,14.50
2023-05-09T03:19:19.338Z,14.50
2023-05-09T03:21:46.494Z,14.50
2023-05-09T03:24:13.720Z,14.50
2023-05-09T03:26:40.768Z,14.10
2023-05-09T03:31:36.053Z,14.60
2023-05-09T03:34:03.147Z,14.70
2023-05-09T03:41:27.184Z,14.60
2023-05-09T03:43:54.663Z,14.50
2023-05-09T03:46:21.721Z,14.50
2023-05-09T03:48:49.803Z,14.40
2023-05-09T03:53:47.093Z,14.50
2023-05-09T03:56:15.259Z,14.10
2023-05-09T04:01:16.114Z,14.30
2023-05-09T04:08:43.735Z,14.30
2023-05-09T04:11:10.818Z,14.30
2023-05-09T04:13:40.581Z,14.40
2023-05-09T04:16:20.624Z,14.30
2023-05-09T04:18:47.790Z,14.30
2023-05-09T04:26:14.144Z,14.30
2023-05-09T04:28:42.945Z,14.30
2023-05-09T04:31:12.957Z,14.30
2023-05-09T04:33:40.566Z,14.20
2023-05-09T04:36:08.068Z,14.10
2023-05-09T04:38:36.016Z,14.30
2023-05-09T04:43:33.898Z,14.20
2023-05-09T04:48:32.893Z,14.00
2023-05-09T04:53:28.312Z,14.20
2023-05-09T04:58:25.728Z,14.10
2023-05-09T05:00:53.742Z,14.30
2023-05-09T05:03:20.837Z,14.20
2023-05-09T05:08:15.793Z,14.20
2023-05-09T05:20:42.666Z,14.00
2023-05-09T05:23:10.355Z,14.20
2023-05-09T05:25:38.307Z,14.30
2023-05-09T05:28:06.032Z,14.20
2023-05-09T05:30:34.372Z,14.40
2023-05-09T05:33:02.825Z,13.50
2023-05-09T05:37:58.359Z,14.40
2023-05-09T05:40:26.406Z,14.30
2023-05-09T05:45:23.548Z,14.40
2023-05-09T05:52:52.682Z,14.70
2023-05-09T05:55:19.878Z,14.30
2023-05-09T05:57:47.764Z,14.40
2023-05-09T06:02:50.576Z,14.40
2023-05-09T06:05:26.507Z,14.40
2023-05-09T06:10:21.200Z,14.70
2023-05-09T06:12:48.390Z,14.40
2023-05-09T06:15:15.664Z,14.40
2023-05-09T06:17:46.328Z,14.40
2023-05-09T06:20:13.317Z,14.40
2023-05-09T06:22:40.390Z,14.40
2023-05-09T06:25:10.354Z,14.50
2023-05-09T06:27:38.389Z,14.30
2023-05-09T06:30:23.856Z,12.90
2023-05-09T06:32:53.469Z,14.30
2023-05-09T06:37:49.007Z,14.00
2023-05-09T06:40:17.369Z,14.70
2023-05-09T06:42:45.166Z,14.50
2023-05-09T06:45:12.586Z,14.50
2023-05-09T06:47:39.868Z,14.90
2023-05-09T06:52:34.971Z,14.70
2023-05-09T06:55:02.037Z,14.80
2023-05-09T06:57:29.209Z,14.80
2023-05-09T06:59:56.771Z,14.80
2023-05-09T07:02:23.972Z,15.10
2023-05-09T07:04:51.145Z,14.80
2023-05-09T07:07:18.208Z,14.80
2023-05-09T07:12:12.823Z,14.80
2023-05-09T07:14:44.189Z,15.80
2023-05-09T07:17:21.691Z,15.40
2023-05-09T07:22:18.050Z,15.30
2023-05-09T07:24:46.851Z,15.20
2023-05-09T07:27:14.091Z,15.30
2023-05-09T07:29:41.074Z,15.30
2023-05-09T07:34:36.445Z,15.80
2023-05-09T07:37:03.706Z,15.20
2023-05-09T07:41:58.567Z,15.20
2023-05-09T07:46:55.399Z,15.40
2023-05-09T07:49:22.831Z,15.40
2023-05-09T07:51:50.133Z,15.40
2023-05-09T07:54:17.338Z,15.50
2023-05-09T07:56:44.325Z,15.10
2023-05-09T07:59:12.295Z,15.50
2023-05-09T08:04:08.941Z,16.10
2023-05-09T08:06:36.704Z,15.80
2023-05-09T08:09:04.719Z,15.90
2023-05-09T08:11:36.344Z,16.00
2023-05-09T08:14:03.558Z,16.00
2023-05-09T08:16:30.969Z,16.10
2023-05-09T08:18:58.198Z,16.20
2023-05-09T08:21:25.367Z,16.40
2023-05-09T08:23:52.952Z,16.20
2023-05-09T08:26:20.009Z,16.20
2023-05-09T08:28:47.126Z,16.60
2023-05-09T08:31:16.476Z,16.60
2023-05-09T08:33:43.438Z,16.50
2023-05-09T08:38:40.498Z,16.50
2023-05-09T08:41:07.509Z,16.50
2023-05-09T08:43:38.710Z,16.70
2023-05-09T08:46:11.142Z,16.90
2023-05-09T08:48:38.973Z,16.90
2023-05-09T08:51:07.552Z,16.70
2023-05-09T08:53:34.975Z,16.80
2023-05-09T08:56:03.893Z,17.00
2023-05-09T08:58:32.271Z,17.00
2023-05-09T09:00:59.663Z,17.30
2023-05-09T09:03:27.296Z,17.20
2023-05-09T09:05:55.223Z,17.20
2023-05-09T09:08:23.126Z,17.10
2023-05-09T09:10:50.650Z,17.20
2023-05-09T09:13:18.444Z,17.30
2023-05-09T09:15:47.119Z,17.40
2023-05-09T09:18:23.569Z,17.60
2023-05-09T09:20:57.894Z,17.60
2023-05-09T09:23:26.749Z,17.60
2023-05-09T09:26:07.027Z,17.90
2023-05-09T09:28:34.288Z,17.90
2023-05-09T09:31:02.464Z,17.90
2023-05-09T09:33:30.229Z,17.70
2023-05-09T09:35:57.735Z,17.50
2023-05-09T09:38:25.356Z,18.00
2023-05-09T09:40:52.321Z,18.10
2023-05-09T09:43:19.749Z,18.10
2023-05-09T09:45:53.087Z,17.90
2023-05-09T09:48:36.356Z,18.10
2023-05-09T09:51:11.385Z,18.30
2023-05-09T09:53:43.525Z,18.40
2023-05-09T09:56:11.093Z,18.40
2023-05-09T09:58:38.185Z,18.30
2023-05-09T10:01:20.832Z,18.70
2023-05-09T10:03:48.195Z,18.60
2023-05-09T10:06:16.719Z,18.50
2023-05-09T10:08:49.314Z,18.30
2023-05-09T10:11:16.545Z,18.20
2023-05-09T10:13:44.589Z,18.00
2023-05-09T10:16:13.000Z,18.70
2023-05-09T10:18:42.898Z,18.30
2023-05-09T10:21:14.772Z,17.60
2023-05-09T10:23:47.386Z,17.60
2023-05-09T10:26:25.617Z,17.40
2023-05-09T10:28:56.730Z,17.70
2023-05-09T10:31:27.298Z,19.30
2023-05-09T10:33:55.929Z,18.30
2023-05-09T10:36:26.227Z,18.90
2023-05-09T10:38:56.637Z,19.10
2023-05-09T10:41:24.157Z,19.30
2023-05-09T10:43:51.824Z,19.20
2023-05-09T10:46:19.012Z,19.40
2023-05-09T10:48:48.132Z,18.70
2023-05-09T10:51:16.469Z,18.20
2023-05-09T10:53:51.652Z,18.20
2023-05-09T10:56:35.936Z,18.30
2023-05-09T10:59:03.184Z,18.50
2023-05-09T11:01:35.359Z,18.50
2023-05-09T11:04:10.532Z,19.00
2023-05-09T11:06:45.406Z,18.70
2023-05-09T11:09:33.176Z,19.00
2023-05-09T11:12:11.469Z,18.70
2023-05-09T11:14:45.896Z,18.60
2023-05-09T11:17:30.625Z,18.30
2023-05-09T11:20:05.622Z,17.80
2023-05-09T11:22:39.881Z,18.50
2023-05-09T11:25:13.447Z,18.60
2023-05-09T11:27:48.970Z,19.40
2023-05-09T11:30:19.652Z,19.90
2023-05-09T11:32:51.577Z,19.90
2023-05-09T11:35:21.978Z,19.40
2023-05-09T11:38:06.299Z,19.50
2023-05-09T11:40:34.806Z,20.00
2023-05-09T11:43:02.204Z,22.00
2023-05-09T11:45:33.619Z,21.20
2023-05-09T11:48:01.250Z,20.40
2023-05-09T11:50:28.784Z,20.10
2023-05-09T11:52:56.020Z,20.10
2023-05-09T11:55:23.228Z,20.00
2023-05-09T11:57:54.505Z,20.50
2023-05-09T12:00:24.138Z,20.60
2023-05-09T12:02:52.735Z,20.10
2023-05-09T12:05:22.771Z,20.40
2023-05-09T12:07:50.031Z,20.50
2023-05-09T12:10:23.117Z,20.70
2023-05-09T12:12:53.455Z,20.50
2023-05-09T12:15:21.815Z,20.00
2023-05-09T12:18:05.871Z,19.00
2023-05-09T12:20:48.140Z,19.90
2023-05-09T12:23:15.650Z,20.50
2023-05-09T12:25:56.827Z,20.50
2023-05-09T12:28:25.659Z,21.00
2023-05-09T12:30:54.132Z,20.90
2023-05-09T12:33:22.276Z,20.30
2023-05-09T12:36:06.123Z,20.10
2023-05-09T12:38:33.782Z,20.50
2023-05-09T12:41:10.716Z,19.80
2023-05-09T12:43:49.291Z,20.30
2023-05-09T12:46:20.745Z,20.40
2023-05-09T12:48:49.337Z,20.60
2023-05-09T12:51:21.697Z,20.60
2023-05-09T12:53:49.152Z,21.10
2023-05-09T12:58:54.562Z,20.90
2023-05-09T13:01:27.978Z,20.60
2023-05-09T13:04:05.961Z,21.00
2023-05-09T13:06:33.586Z,21.00
2023-05-09T13:11:30.009Z,21.40
2023-05-09T13:13:57.515Z,21.30
2023-05-09T13:16:25.081Z,21.30
2023-05-09T13:18:52.102Z,21.70
2023-05-09T13:21:19.565Z,21.60
2023-05-09T13:23:46.522Z,21.80
2023-05-09T13:26:13.778Z,22.00
2023-05-09T13:28:40.909Z,22.10
2023-05-09T13:31:08.456Z,22.10
2023-05-09T13:33:35.511Z,21.40
2023-05-09T13:36:02.623Z,21.60
2023-05-09T13:38:35.370Z,20.90
2023-05-09T13:41:02.761Z,21.30
2023-05-09T13:45:57.309Z,21.40
2023-05-09T13:48:24.460Z,21.20
2023-05-09T13:50:51.605Z,21.30
2023-05-09T13:53:18.706Z,22.80
2023-05-09T13:55:46.338Z,22.00
2023-05-09T13:58:13.458Z,21.30
2023-05-09T14:00:40.711Z,21.40
2023-05-09T14:03:07.952Z,21.00
2023-05-09T14:05:35.131Z,21.30
2023-05-09T14:08:02.142Z,21.30
2023-05-09T14:10:29.443Z,21.60
2023-05-09T14:12:56.969Z,21.70
2023-05-09T14:15:24.179Z,21.60
2023-05-09T14:17:51.296Z,21.30
2023-05-09T14:20:18.706Z,21.50
2023-05-09T14:22:46.558Z,21.60
2023-05-09T14:25:13.581Z,21.70
2023-05-09T14:27:40.579Z,21.90
2023-05-09T14:30:08.692Z,21.60
2023-05-09T14:32:35.718Z,21.40
2023-05-09T14:35:02.803Z,21.40
2023-05-09T14:37:30.308Z,21.40
2023-05-09T14:39:57.410Z,21.80
2023-05-09T14:42:24.568Z,21.50
2023-05-09T14:44:51.552Z,21.40
2023-05-09T14:47:18.633Z,21.60
2023-05-09T14:49:45.644Z,21.10
2023-05-09T14:52:13.716Z,20.40
2023-05-09T14:54:41.213Z,20.90
2023-05-09T14:57:08.428Z,21.50
2023-05-09T14:59:37.078Z,21.50
2023-05-09T15:02:04.566Z,21.20
2023-05-09T15:04:31.752Z,21.50
2023-05-09T15:06:59.410Z,21.40
2023-05-09T15:09:26.855Z,21.00
2023-05-09T15:11:55.199Z,21.60
2023-05-09T15:14:22.323Z,21.50
2023-05-09T15:16:51.761Z,21.20
2023-05-09T15:19:19.184Z,21.40
2023-05-09T15:21:46.380Z,21.30
2023-05-09T15:24:13.403Z,20.90
2023-05-09T15:26:40.415Z,19.90
2023-05-09T15:31:36.454Z,17.30
2023-05-09T15:39:00.912Z,16.50
2023-05-09T15:51:25.796Z,18.40
2023-05-09T15:53:55.169Z,18.60
2023-05-09T15:56:22.295Z,18.90
2023-05-09T15:58:49.295Z,19.30
2023-05-09T16:01:16.424Z,19.30
2023-05-09T16:03:43.596Z,19.20
2023-05-09T16:06:13.193Z,19.30
2023-05-09T16:08:40.187Z,19.40
2023-05-09T16:11:07.290Z,19.30
2023-05-09T16:16:03.794Z,19.60
2023-05-09T16:20:59.619Z,19.60
2023-05-09T16:23:26.808Z,19.60
2023-05-09T16:25:53.895Z,19.90
2023-05-09T16:28:23.456Z,19.50
2023-05-09T16:33:18.730Z,19.60
2023-05-09T16:35:45.809Z,19.50
2023-05-09T16:38:13.233Z,19.30
2023-05-09T16:40:40.587Z,19.50
2023-05-09T16:45:35.078Z,18.50
2023-05-09T16:48:02.585Z,18.60
2023-05-09T16:50:29.842Z,18.90
2023-05-09T16:55:24.403Z,19.10
2023-05-09T16:57:52.534Z,19.20
2023-05-09T17:00:20.099Z,19.10
2023-05-09T17:05:16.030Z,19.30
2023-05-09T17:07:45.845Z,19.00
2023-05-09T17:10:13.124Z,19.70
2023-05-09T17:12:40.389Z,18.90
2023-05-09T17:15:08.749Z,18.90
2023-05-09T17:17:36.114Z,18.90
2023-05-09T17:20:04.407Z,18.90
2023-05-09T18:11:52.351Z,18.10
2023-05-09T18:21:47.160Z,18.30
2023-05-09T18:26:52.401Z,18.30
2023-05-09T18:49:32.857Z,16.30
2023-05-09T19:08:19.980Z,17.70
2023-05-09T19:11:34.488Z,20.80
2023-05-09T19:19:50.152Z,17.70
2023-05-09T19:22:38.620Z,17.80
2023-05-09T19:32:37.561Z,17.70
2023-05-09T19:40:14.995Z,17.70
2023-05-09T19:45:37.367Z,19.20
2023-05-09T19:48:30.289Z,17.60
2023-05-09T19:51:51.495Z,17.50
2023-05-09T19:59:23.448Z,17.50
2023-05-09T20:09:20.919Z,17.20
2023-05-09T20:11:51.055Z,17.50
2023-05-09T20:19:14.817Z,17.20
2023-05-09T20:24:12.526Z,17.20
2023-05-09T20:41:27.215Z,16.80
2023-05-09T21:13:28.892Z,16.40
2023-05-09T21:15:56.021Z,16.30
2023-05-09T21:30:42.807Z,16.10
2023-05-09T21:33:09.781Z,16.10
2023-05-09T21:38:04.206Z,16.10
2023-05-09T21:45:26.295Z,16.30
2023-05-09T21:47:53.377Z,16.30
2023-05-09T21:52:47.862Z,16.20
2023-05-09T21:55:15.400Z,16.40
2023-05-09T22:00:16.770Z,16.20
2023-05-09T22:02:44.234Z,15.60
2023-05-09T22:05:11.976Z,15.70
2023-05-09T22:07:39.238Z,15.60
2023-05-09T22:10:07.100Z,15.60
2023-05-09T22:15:01.708Z,14.50
2023-05-09T22:17:28.708Z,14.60
2023-05-09T22:19:55.796Z,14.90
2023-05-09T22:22:27.001Z,14.80
2023-05-09T22:24:54.204Z,15.00
2023-05-09T22:27:21.388Z,14.80
2023-05-09T22:29:48.337Z,15.20
2023-05-09T22:32:15.347Z,15.10
2023-05-09T22:34:42.836Z,15.00
2023-05-09T22:37:10.014Z,15.20
2023-05-09T22:42:04.724Z,15.40
2023-05-09T22:44:32.512Z,16.60
2023-05-09T22:46:59.530Z,15.60
2023-05-09T22:49:26.676Z,15.70
2023-05-09T22:51:53.644Z,15.60
2023-05-09T22:54:22.497Z,15.80
2023-05-09T22:56:49.506Z,16.10
2023-05-09T23:01:44.181Z,15.90
2023-05-09T23:36:07.929Z,14.60
2023-05-09T23:41:02.563Z,14.40
2023-05-09T23:43:29.500Z,14.80
2023-05-09T23:50:51.710Z,14.50
2023-05-09T23:53:19.023Z,14.60
2023-05-09T23:55:46.096Z,14.80
2023-05-09T23:58:13.124Z,14.50
